sensor_id;sensor_type;location;lat;lon;timestamp;P1;durP1;ratioP1;P2;durP2;ratioP2
59410;SDS011;45215;32.610;-115.482;2022-09-12T00:00:42;17.30;;;15.50;;
59410;SDS011;45215;32.610;-115.482;2022-09-12T00:03:08;16.35;;;14.65;;
59410;SDS011;45215;32.610;-115.482;2022-09-12T00:05:39;15.80;;;14.20;;
59410;SDS011;45215;32.610;-115.482;2022-09-12T00:08:06;17.30;;;13.95;;
59410;SDS011;45215;32.610;-115.482;2022-09-12T00:10:36;15.63;;;14.02;;
59410;SDS011;45215;32.610;-115.482;2022-09-12T00:13:06;15.23;;;13.60;;
59410;SDS011;45215;32.610;-115.482;2022-09-12T00:15:37;15.10;;;13.50;;
59410;SDS011;45215;32.610;-115.482;2022-09-12T00:18:05;14.77;;;13.27;;
59410;SDS011;45215;32.610;-115.482;2022-09-12T00:20:33;14.63;;;13.18;;
59410;SDS011;45215;32.610;-115.482;2022-09-12T00:22:59;14.73;;;13.25;;
59410;SDS011;45215;32.610;-115.482;2022-09-12T00:25:26;13.38;;;12.07;;
59410;SDS011;45215;32.610;-115.482;2022-09-12T00:27:54;14.93;;;12.98;;
59410;SDS011;45215;32.610;-115.482;2022-09-12T00:30:21;19.05;;;17.08;;
59410;SDS011;45215;32.610;-115.482;2022-09-12T00:32:48;22.35;;;20.15;;
59410;SDS011;45215;32.610;-115.482;2022-09-12T00:35:15;27.45;;;24.75;;
59410;SDS011;45215;32.610;-115.482;2022-09-12T00:37:42;30.33;;;27.23;;
59410;SDS011;45215;32.610;-115.482;2022-09-12T00:40:08;30.40;;;27.27;;
59410;SDS011;45215;32.610;-115.482;2022-09-12T00:42:34;31.58;;;28.33;;
59410;SDS011;45215;32.610;-115.482;2022-09-12T00:45:00;31.00;;;27.92;;
59410;SDS011;45215;32.610;-115.482;2022-09-12T00:47:27;30.10;;;27.08;;
59410;SDS011;45215;32.610;-115.482;2022-09-12T00:50:03;29.27;;;26.25;;
59410;SDS011;45215;32.610;-115.482;2022-09-12T00:52:43;29.55;;;24.92;;
59410;SDS011;45215;32.610;-115.482;2022-09-12T00:55:23;27.50;;;24.58;;
59410;SDS011;45215;32.610;-115.482;2022-09-12T00:58:03;26.52;;;23.85;;
59410;SDS011;45215;32.610;-115.482;2022-09-12T01:00:39;26.45;;;23.60;;
59410;SDS011;45215;32.610;-115.482;2022-09-12T01:03:10;24.05;;;21.58;;
59410;SDS011;45215;32.610;-115.482;2022-09-12T01:05:57;24.98;;;22.48;;
59410;SDS011;45215;32.610;-115.482;2022-09-12T01:08:34;23.75;;;21.23;;
59410;SDS011;45215;32.610;-115.482;2022-09-12T01:11:02;22.77;;;20.48;;
59410;SDS011;45215;32.610;-115.482;2022-09-12T01:13:30;22.45;;;20.25;;
59410;SDS011;45215;32.610;-115.482;2022-09-12T01:15:58;21.73;;;19.52;;
59410;SDS011;45215;32.610;-115.482;2022-09-12T01:40:39;18.08;;;16.27;;
59410;SDS011;45215;32.610;-115.482;2022-09-12T01:48:49;16.25;;;14.65;;
59410;SDS011;45215;32.610;-115.482;2022-09-12T01:51:23;15.50;;;13.98;;
59410;SDS011;45215;32.610;-115.482;2022-09-12T01:53:58;16.08;;;14.43;;
59410;SDS011;45215;32.610;-115.482;2022-09-12T01:56:49;15.30;;;13.80;;
59410;SDS011;45215;32.610;-115.482;2022-09-12T01:59:54;15.10;;;13.60;;
59410;SDS011;45215;32.610;-115.482;2022-09-12T02:02:15;14.77;;;13.27;;
59410;SDS011;45215;32.610;-115.482;2022-09-12T02:07:20;13.35;;;11.95;;
59410;SDS011;45215;32.610;-115.482;2022-09-12T02:10:14;12.75;;;11.55;;
59410;SDS011;45215;32.610;-115.482;2022-09-12T02:12:43;13.38;;;12.07;;
59410;SDS011;45215;32.610;-115.482;2022-09-12T02:15:16;12.85;;;11.60;;
59410;SDS011;45215;32.610;-115.482;2022-09-12T02:17:46;12.77;;;11.48;;
59410;SDS011;45215;32.610;-115.482;2022-09-12T02:22:54;12.30;;;10.98;;
59410;SDS011;45215;32.610;-115.482;2022-09-12T02:25:22;11.82;;;10.73;;
59410;SDS011;45215;32.610;-115.482;2022-09-12T02:27:54;11.45;;;10.40;;
59410;SDS011;45215;32.610;-115.482;2022-09-12T02:30:34;11.55;;;10.45;;
59410;SDS011;45215;32.610;-115.482;2022-09-12T02:33:14;10.75;;;9.65;;
59410;SDS011;45215;32.610;-115.482;2022-09-12T02:35:48;10.75;;;9.73;;
59410;SDS011;45215;32.610;-115.482;2022-09-12T02:38:27;10.90;;;9.90;;
59410;SDS011;45215;32.610;-115.482;2022-09-12T02:40:58;10.07;;;9.07;;
59410;SDS011;45215;32.610;-115.482;2022-09-12T02:43:24;10.23;;;9.15;;
59410;SDS011;45215;32.610;-115.482;2022-09-12T02:45:50;10.25;;;9.25;;
59410;SDS011;45215;32.610;-115.482;2022-09-12T02:48:24;9.40;;;8.50;;
59410;SDS011;45215;32.610;-115.482;2022-09-12T02:50:54;9.98;;;9.05;;
59410;SDS011;45215;32.610;-115.482;2022-09-12T02:53:21;9.40;;;8.50;;
59410;SDS011;45215;32.610;-115.482;2022-09-12T02:55:48;9.43;;;8.52;;
59410;SDS011;45215;32.610;-115.482;2022-09-12T02:58:16;16.38;;;9.35;;
59410;SDS011;45215;32.610;-115.482;2022-09-12T03:00:49;10.18;;;8.23;;
59410;SDS011;45215;32.610;-115.482;2022-09-12T03:03:31;14.93;;;8.32;;
59410;SDS011;45215;32.610;-115.482;2022-09-12T03:06:17;9.55;;;8.07;;
59410;SDS011;45215;32.610;-115.482;2022-09-12T03:17:28;10.73;;;7.97;;
59410;SDS011;45215;32.610;-115.482;2022-09-12T03:20:13;8.73;;;7.00;;
59410;SDS011;45215;32.610;-115.482;2022-09-12T03:25:55;7.00;;;6.40;;
59410;SDS011;45215;32.610;-115.482;2022-09-12T03:28:25;7.30;;;6.60;;
59410;SDS011;45215;32.610;-115.482;2022-09-12T03:30:52;7.15;;;6.45;;
59410;SDS011;45215;32.610;-115.482;2022-09-12T03:33:21;7.22;;;6.20;;
59410;SDS011;45215;32.610;-115.482;2022-09-12T03:35:49;7.07;;;6.38;;
59410;SDS011;45215;32.610;-115.482;2022-09-12T03:38:16;7.05;;;6.05;;
59410;SDS011;45215;32.610;-115.482;2022-09-12T03:40:43;6.60;;;6.00;;
59410;SDS011;45215;32.610;-115.482;2022-09-12T03:43:10;6.18;;;5.57;;
59410;SDS011;45215;32.610;-115.482;2022-09-12T03:45:37;5.97;;;5.35;;
59410;SDS011;45215;32.610;-115.482;2022-09-12T03:48:03;5.88;;;5.15;;
59410;SDS011;45215;32.610;-115.482;2022-09-12T03:50:30;6.20;;;5.60;;
59410;SDS011;45215;32.610;-115.482;2022-09-12T03:53:00;5.95;;;5.35;;
59410;SDS011;45215;32.610;-115.482;2022-09-12T03:55:27;5.65;;;5.15;;
59410;SDS011;45215;32.610;-115.482;2022-09-12T03:57:53;5.72;;;5.10;;
59410;SDS011;45215;32.610;-115.482;2022-09-12T04:00:20;5.43;;;4.88;;
59410;SDS011;45215;32.610;-115.482;2022-09-12T04:02:46;5.50;;;4.78;;
59410;SDS011;45215;32.610;-115.482;2022-09-12T04:05:13;5.00;;;4.50;;
59410;SDS011;45215;32.610;-115.482;2022-09-12T04:07:39;5.25;;;4.75;;
59410;SDS011;45215;32.610;-115.482;2022-09-12T04:10:05;4.97;;;4.30;;
59410;SDS011;45215;32.610;-115.482;2022-09-12T04:12:31;4.45;;;4.05;;
59410;SDS011;45215;32.610;-115.482;2022-09-12T04:14:59;4.60;;;4.20;;
59410;SDS011;45215;32.610;-115.482;2022-09-12T04:17:25;4.70;;;4.20;;
59410;SDS011;45215;32.610;-115.482;2022-09-12T04:19:52;4.53;;;4.13;;
59410;SDS011;45215;32.610;-115.482;2022-09-12T04:22:18;4.47;;;4.05;;
59410;SDS011;45215;32.610;-115.482;2022-09-12T04:24:45;4.47;;;4.07;;
59410;SDS011;45215;32.610;-115.482;2022-09-12T04:27:11;4.40;;;4.00;;
59410;SDS011;45215;32.610;-115.482;2022-09-12T04:29:37;4.43;;;4.03;;
59410;SDS011;45215;32.610;-115.482;2022-09-12T04:32:03;4.72;;;3.90;;
59410;SDS011;45215;32.610;-115.482;2022-09-12T04:34:30;4.50;;;4.10;;
59410;SDS011;45215;32.610;-115.482;2022-09-12T04:36:56;4.03;;;3.63;;
59410;SDS011;45215;32.610;-115.482;2022-09-12T04:39:23;4.68;;;3.92;;
59410;SDS011;45215;32.610;-115.482;2022-09-12T04:41:49;4.28;;;3.88;;
59410;SDS011;45215;32.610;-115.482;2022-09-12T04:44:16;4.07;;;3.65;;
59410;SDS011;45215;32.610;-115.482;2022-09-12T04:46:44;4.20;;;3.58;;
59410;SDS011;45215;32.610;-115.482;2022-09-12T04:49:11;5.40;;;3.92;;
59410;SDS011;45215;32.610;-115.482;2022-09-12T04:51:40;3.70;;;3.40;;
59410;SDS011;45215;32.610;-115.482;2022-09-12T04:54:11;3.70;;;3.40;;
59410;SDS011;45215;32.610;-115.482;2022-09-12T04:56:40;4.20;;;3.80;;
59410;SDS011;45215;32.610;-115.482;2022-09-12T04:59:09;5.05;;;3.95;;
59410;SDS011;45215;32.610;-115.482;2022-09-12T05:01:36;4.07;;;3.75;;
59410;SDS011;45215;32.610;-115.482;2022-09-12T05:04:03;4.20;;;3.80;;
59410;SDS011;45215;32.610;-115.482;2022-09-12T05:06:30;4.13;;;3.72;;
59410;SDS011;45215;32.610;-115.482;2022-09-12T05:09:01;5.00;;;3.93;;
59410;SDS011;45215;32.610;-115.482;2022-09-12T05:11:30;4.40;;;4.00;;
59410;SDS011;45215;32.610;-115.482;2022-09-12T05:13:58;4.15;;;3.72;;
59410;SDS011;45215;32.610;-115.482;2022-09-12T05:16:25;4.22;;;3.58;;
59410;SDS011;45215;32.610;-115.482;2022-09-12T05:18:56;3.75;;;3.40;;
59410;SDS011;45215;32.610;-115.482;2022-09-12T05:21:23;4.15;;;3.75;;
59410;SDS011;45215;32.610;-115.482;2022-09-12T05:23:51;5.10;;;3.85;;
59410;SDS011;45215;32.610;-115.482;2022-09-12T05:26:18;3.72;;;3.42;;
59410;SDS011;45215;32.610;-115.482;2022-09-12T05:28:46;3.70;;;3.35;;
59410;SDS011;45215;32.610;-115.482;2022-09-12T05:31:15;3.53;;;3.22;;
59410;SDS011;45215;32.610;-115.482;2022-09-12T05:33:44;4.00;;;3.60;;
59410;SDS011;45215;32.610;-115.482;2022-09-12T05:36:13;6.53;;;3.30;;
59410;SDS011;45215;32.610;-115.482;2022-09-12T05:38:50;6.07;;;3.20;;
59410;SDS011;45215;32.610;-115.482;2022-09-12T05:41:23;4.40;;;3.30;;
59410;SDS011;45215;32.610;-115.482;2022-09-12T05:43:55;4.10;;;3.00;;
59410;SDS011;45215;32.610;-115.482;2022-09-12T05:46:26;3.50;;;3.17;;
59410;SDS011;45215;32.610;-115.482;2022-09-12T05:48:54;3.78;;;3.13;;
59410;SDS011;45215;32.610;-115.482;2022-09-12T05:51:22;3.70;;;3.40;;
59410;SDS011;45215;32.610;-115.482;2022-09-12T05:53:52;3.42;;;2.83;;
59410;SDS011;45215;32.610;-115.482;2022-09-12T05:56:21;3.25;;;2.92;;
59410;SDS011;45215;32.610;-115.482;2022-09-12T05:58:59;3.83;;;3.20;;
59410;SDS011;45215;32.610;-115.482;2022-09-12T06:01:26;3.35;;;3.05;;
59410;SDS011;45215;32.610;-115.482;2022-09-12T06:03:55;3.20;;;2.90;;
59410;SDS011;45215;32.610;-115.482;2022-09-12T06:06:25;3.15;;;2.85;;
59410;SDS011;45215;32.610;-115.482;2022-09-12T06:08:54;3.10;;;2.53;;
59410;SDS011;45215;32.610;-115.482;2022-09-12T06:11:24;3.45;;;2.90;;
59410;SDS011;45215;32.610;-115.482;2022-09-12T06:13:53;2.88;;;2.60;;
59410;SDS011;45215;32.610;-115.482;2022-09-12T06:16:21;3.22;;;2.80;;
59410;SDS011;45215;32.610;-115.482;2022-09-12T06:18:50;3.10;;;2.80;;
59410;SDS011;45215;32.610;-115.482;2022-09-12T06:21:21;3.45;;;2.85;;
59410;SDS011;45215;32.610;-115.482;2022-09-12T06:23:48;2.97;;;2.72;;
59410;SDS011;45215;32.610;-115.482;2022-09-12T06:26:15;3.30;;;2.50;;
59410;SDS011;45215;32.610;-115.482;2022-09-12T06:28:45;3.42;;;2.53;;
59410;SDS011;45215;32.610;-115.482;2022-09-12T06:31:13;2.53;;;2.33;;
59410;SDS011;45215;32.610;-115.482;2022-09-12T06:33:44;2.60;;;2.40;;
59410;SDS011;45215;32.610;-115.482;2022-09-12T06:36:14;3.28;;;2.25;;
59410;SDS011;45215;32.610;-115.482;2022-09-12T06:38:45;2.53;;;2.33;;
59410;SDS011;45215;32.610;-115.482;2022-09-12T06:41:13;2.55;;;2.35;;
59410;SDS011;45215;32.610;-115.482;2022-09-12T06:43:40;2.40;;;2.20;;
59410;SDS011;45215;32.610;-115.482;2022-09-12T06:46:07;2.70;;;2.40;;
59410;SDS011;45215;32.610;-115.482;2022-09-12T06:48:34;2.30;;;2.10;;
59410;SDS011;45215;32.610;-115.482;2022-09-12T06:51:02;2.85;;;2.22;;
59410;SDS011;45215;32.610;-115.482;2022-09-12T06:53:32;2.30;;;2.10;;
59410;SDS011;45215;32.610;-115.482;2022-09-12T06:58:57;2.58;;;2.30;;
59410;SDS011;45215;32.610;-115.482;2022-09-12T07:01:24;3.70;;;2.15;;
59410;SDS011;45215;32.610;-115.482;2022-09-12T07:03:54;2.30;;;2.05;;
59410;SDS011;45215;32.610;-115.482;2022-09-12T07:06:23;3.15;;;1.88;;
59410;SDS011;45215;32.610;-115.482;2022-09-12T07:08:59;2.88;;;1.95;;
59410;SDS011;45215;32.610;-115.482;2022-09-12T07:11:27;2.78;;;1.80;;
59410;SDS011;45215;32.610;-115.482;2022-09-12T07:13:59;2.13;;;1.92;;
59410;SDS011;45215;32.610;-115.482;2022-09-12T07:16:27;2.15;;;1.65;;
59410;SDS011;45215;32.610;-115.482;2022-09-12T07:18:54;5.15;;;2.00;;
59410;SDS011;45215;32.610;-115.482;2022-09-12T07:21:25;2.78;;;1.80;;
59410;SDS011;45215;32.610;-115.482;2022-09-12T07:23:52;3.80;;;1.70;;
59410;SDS011;45215;32.610;-115.482;2022-09-12T07:26:21;3.72;;;1.80;;
59410;SDS011;45215;32.610;-115.482;2022-09-12T07:28:50;2.17;;;1.60;;
59410;SDS011;45215;32.610;-115.482;2022-09-12T07:31:21;1.88;;;1.67;;
59410;SDS011;45215;32.610;-115.482;2022-09-12T07:33:49;3.08;;;1.58;;
59410;SDS011;45215;32.610;-115.482;2022-09-12T07:36:17;2.95;;;1.60;;
59410;SDS011;45215;32.610;-115.482;2022-09-12T07:38:44;1.48;;;1.38;;
59410;SDS011;45215;32.610;-115.482;2022-09-12T07:43:38;1.63;;;1.52;;
59410;SDS011;45215;32.610;-115.482;2022-09-12T07:46:04;1.70;;;1.60;;
59410;SDS011;45215;32.610;-115.482;2022-09-12T07:48:30;1.58;;;1.40;;
59410;SDS011;45215;32.610;-115.482;2022-09-12T07:51:00;1.48;;;1.30;;
59410;SDS011;45215;32.610;-115.482;2022-09-12T07:53:38;1.50;;;1.35;;
59410;SDS011;45215;32.610;-115.482;2022-09-12T07:56:05;1.65;;;1.33;;
59410;SDS011;45215;32.610;-115.482;2022-09-12T07:58:34;1.65;;;1.45;;
59410;SDS011;45215;32.610;-115.482;2022-09-12T08:01:03;1.48;;;1.38;;
59410;SDS011;45215;32.610;-115.482;2022-09-12T08:03:31;1.75;;;1.65;;
59410;SDS011;45215;32.610;-115.482;2022-09-12T08:06:04;1.60;;;1.30;;
59410;SDS011;45215;32.610;-115.482;2022-09-12T08:08:35;1.45;;;1.35;;
59410;SDS011;45215;32.610;-115.482;2022-09-12T08:11:04;1.63;;;1.30;;
59410;SDS011;45215;32.610;-115.482;2022-09-12T08:13:33;1.55;;;1.30;;
59410;SDS011;45215;32.610;-115.482;2022-09-12T08:16:05;1.40;;;1.17;;
59410;SDS011;45215;32.610;-115.482;2022-09-12T08:18:39;1.40;;;1.30;;
59410;SDS011;45215;32.610;-115.482;2022-09-12T08:21:10;2.65;;;1.30;;
59410;SDS011;45215;32.610;-115.482;2022-09-12T08:23:44;2.35;;;1.20;;
59410;SDS011;45215;32.610;-115.482;2022-09-12T08:26:11;1.33;;;1.20;;
59410;SDS011;45215;32.610;-115.482;2022-09-12T08:28:38;2.03;;;1.10;;
59410;SDS011;45215;32.610;-115.482;2022-09-12T08:31:13;1.60;;;1.23;;
59410;SDS011;45215;32.610;-115.482;2022-09-12T08:33:40;1.30;;;1.20;;
59410;SDS011;45215;32.610;-115.482;2022-09-12T08:36:17;1.20;;;1.10;;
59410;SDS011;45215;32.610;-115.482;2022-09-12T08:38:46;1.33;;;1.23;;
59410;SDS011;45215;32.610;-115.482;2022-09-12T08:46:33;2.08;;;1.23;;
59410;SDS011;45215;32.610;-115.482;2022-09-12T08:49:12;1.50;;;1.10;;
59410;SDS011;45215;32.610;-115.482;2022-09-12T08:51:45;1.63;;;1.10;;
59410;SDS011;45215;32.610;-115.482;2022-09-12T08:54:17;1.85;;;1.10;;
59410;SDS011;45215;32.610;-115.482;2022-09-12T08:56:48;1.77;;;1.30;;
59410;SDS011;45215;32.610;-115.482;2022-09-12T08:59:15;1.10;;;1.00;;
59410;SDS011;45215;32.610;-115.482;2022-09-12T09:01:43;1.17;;;1.08;;
59410;SDS011;45215;32.610;-115.482;2022-09-12T09:04:14;1.27;;;1.17;;
59410;SDS011;45215;32.610;-115.482;2022-09-12T09:07:11;1.27;;;1.10;;
59410;SDS011;45215;32.610;-115.482;2022-09-12T09:12:52;1.80;;;1.00;;
59410;SDS011;45215;32.610;-115.482;2022-09-12T09:15:32;1.40;;;1.10;;
59410;SDS011;45215;32.610;-115.482;2022-09-12T09:18:18;1.10;;;1.00;;
59410;SDS011;45215;32.610;-115.482;2022-09-12T09:21:01;1.55;;;1.10;;
59410;SDS011;45215;32.610;-115.482;2022-09-12T09:23:35;2.15;;;1.00;;
59410;SDS011;45215;32.610;-115.482;2022-09-12T09:29:16;1.23;;;1.13;;
59410;SDS011;45215;32.610;-115.482;2022-09-12T09:31:50;1.88;;;1.00;;
59410;SDS011;45215;32.610;-115.482;2022-09-12T09:34:19;1.60;;;1.00;;
59410;SDS011;45215;32.610;-115.482;2022-09-12T09:36:49;1.50;;;1.17;;
59410;SDS011;45215;32.610;-115.482;2022-09-12T09:42:00;2.83;;;1.30;;
59410;SDS011;45215;32.610;-115.482;2022-09-12T09:44:28;1.50;;;1.10;;
59410;SDS011;45215;32.610;-115.482;2022-09-12T09:46:56;1.60;;;1.15;;
59410;SDS011;45215;32.610;-115.482;2022-09-12T09:49:25;0.88;;;0.88;;
59410;SDS011;45215;32.610;-115.482;2022-09-12T09:51:55;1.25;;;1.05;;
59410;SDS011;45215;32.610;-115.482;2022-09-12T09:54:28;1.50;;;1.10;;
59410;SDS011;45215;32.610;-115.482;2022-09-12T09:56:58;1.73;;;1.00;;
59410;SDS011;45215;32.610;-115.482;2022-09-12T09:59:31;1.98;;;1.38;;
59410;SDS011;45215;32.610;-115.482;2022-09-12T10:01:59;1.20;;;1.10;;
59410;SDS011;45215;32.610;-115.482;2022-09-12T10:04:54;1.30;;;1.20;;
59410;SDS011;45215;32.610;-115.482;2022-09-12T10:07:22;1.10;;;1.00;;
59410;SDS011;45215;32.610;-115.482;2022-09-12T10:10:13;1.65;;;1.23;;
59410;SDS011;45215;32.610;-115.482;2022-09-12T10:12:41;1.20;;;1.10;;
59410;SDS011;45215;32.610;-115.482;2022-09-12T10:15:20;1.98;;;1.20;;
59410;SDS011;45215;32.610;-115.482;2022-09-12T10:17:50;1.48;;;1.20;;
59410;SDS011;45215;32.610;-115.482;2022-09-12T10:20:36;1.60;;;1.17;;
59410;SDS011;45215;32.610;-115.482;2022-09-12T10:25:47;1.33;;;1.10;;
59410;SDS011;45215;32.610;-115.482;2022-09-12T10:28:21;1.20;;;1.00;;
59410;SDS011;45215;32.610;-115.482;2022-09-12T10:30:53;1.15;;;1.05;;
59410;SDS011;45215;32.610;-115.482;2022-09-12T10:33:21;1.50;;;1.20;;
59410;SDS011;45215;32.610;-115.482;2022-09-12T10:35:50;1.60;;;1.15;;
59410;SDS011;45215;32.610;-115.482;2022-09-12T10:38:22;1.20;;;1.10;;
59410;SDS011;45215;32.610;-115.482;2022-09-12T10:40:55;1.52;;;1.20;;
59410;SDS011;45215;32.610;-115.482;2022-09-12T10:43:34;1.58;;;1.02;;
59410;SDS011;45215;32.610;-115.482;2022-09-12T10:53:50;1.52;;;1.42;;
59410;SDS011;45215;32.610;-115.482;2022-09-12T10:56:21;1.40;;;1.30;;
59410;SDS011;45215;32.610;-115.482;2022-09-12T10:59:04;1.83;;;1.70;;
59410;SDS011;45215;32.610;-115.482;2022-09-12T11:01:39;1.80;;;1.50;;
59410;SDS011;45215;32.610;-115.482;2022-09-12T11:18:25;1.63;;;1.52;;
59410;SDS011;45215;32.610;-115.482;2022-09-12T11:29:33;1.80;;;1.50;;
59410;SDS011;45215;32.610;-115.482;2022-09-12T11:46:05;2.45;;;1.92;;
59410;SDS011;45215;32.610;-115.482;2022-09-12T11:51:40;1.95;;;1.63;;
59410;SDS011;45215;32.610;-115.482;2022-09-12T12:00:21;2.20;;;2.00;;
59410;SDS011;45215;32.610;-115.482;2022-09-12T12:05:56;2.78;;;2.08;;
59410;SDS011;45215;32.610;-115.482;2022-09-12T12:08:40;3.45;;;1.70;;
59410;SDS011;45215;32.610;-115.482;2022-09-12T12:11:08;2.92;;;1.75;;
59410;SDS011;45215;32.610;-115.482;2022-09-12T12:18:52;2.30;;;1.90;;
59410;SDS011;45215;32.610;-115.482;2022-09-12T12:24:18;2.28;;;1.90;;
59410;SDS011;45215;32.610;-115.482;2022-09-12T12:27:04;1.95;;;1.75;;
59410;SDS011;45215;32.610;-115.482;2022-09-12T12:34:30;3.85;;;1.70;;
59410;SDS011;45215;32.610;-115.482;2022-09-12T12:44:59;3.38;;;1.70;;
59410;SDS011;45215;32.610;-115.482;2022-09-12T12:47:49;3.65;;;1.63;;
59410;SDS011;45215;32.610;-115.482;2022-09-12T12:58:18;3.55;;;1.92;;
59410;SDS011;45215;32.610;-115.482;2022-09-12T13:01:16;2.88;;;1.88;;
59410;SDS011;45215;32.610;-115.482;2022-09-12T13:06:35;4.68;;;2.00;;
59410;SDS011;45215;32.610;-115.482;2022-09-12T13:09:07;3.80;;;2.25;;
59410;SDS011;45215;32.610;-115.482;2022-09-12T13:11:58;4.47;;;2.05;;
59410;SDS011;45215;32.610;-115.482;2022-09-12T13:14:32;4.82;;;2.10;;
59410;SDS011;45215;32.610;-115.482;2022-09-12T13:17:13;2.47;;;1.90;;
59410;SDS011;45215;32.610;-115.482;2022-09-12T13:20:05;2.05;;;1.80;;
59410;SDS011;45215;32.610;-115.482;2022-09-12T13:22:46;3.33;;;1.92;;
59410;SDS011;45215;32.610;-115.482;2022-09-12T13:25:18;3.35;;;2.05;;
59410;SDS011;45215;32.610;-115.482;2022-09-12T13:27:57;3.88;;;2.10;;
59410;SDS011;45215;32.610;-115.482;2022-09-12T13:30:36;15.85;;;3.50;;
59410;SDS011;45215;32.610;-115.482;2022-09-12T13:33:39;14.75;;;2.78;;
59410;SDS011;45215;32.610;-115.482;2022-09-12T13:44:47;11.05;;;2.85;;
59410;SDS011;45215;32.610;-115.482;2022-09-12T13:47:27;11.80;;;2.80;;
59410;SDS011;45215;32.610;-115.482;2022-09-12T13:50:00;7.65;;;2.50;;
59410;SDS011;45215;32.610;-115.482;2022-09-12T13:52:30;10.05;;;2.55;;
59410;SDS011;45215;32.610;-115.482;2022-09-12T13:54:59;6.95;;;2.47;;
59410;SDS011;45215;32.610;-115.482;2022-09-12T13:57:35;3.97;;;2.47;;
59410;SDS011;45215;32.610;-115.482;2022-09-12T14:00:04;5.80;;;2.65;;
59410;SDS011;45215;32.610;-115.482;2022-09-12T14:02:34;2.85;;;2.22;;
59410;SDS011;45215;32.610;-115.482;2022-09-12T14:05:10;4.07;;;2.13;;
59410;SDS011;45215;32.610;-115.482;2022-09-12T14:07:57;4.50;;;2.10;;
59410;SDS011;45215;32.610;-115.482;2022-09-12T14:10:32;3.50;;;2.10;;
59410;SDS011;45215;32.610;-115.482;2022-09-12T14:13:01;4.80;;;2.00;;
59410;SDS011;45215;32.610;-115.482;2022-09-12T14:15:35;5.85;;;1.98;;
59410;SDS011;45215;32.610;-115.482;2022-09-12T14:18:03;4.05;;;2.10;;
59410;SDS011;45215;32.610;-115.482;2022-09-12T14:20:34;4.72;;;2.10;;
59410;SDS011;45215;32.610;-115.482;2022-09-12T14:23:26;2.30;;;2.10;;
59410;SDS011;45215;32.610;-115.482;2022-09-12T14:25:54;5.72;;;2.25;;
59410;SDS011;45215;32.610;-115.482;2022-09-12T14:28:23;2.83;;;1.83;;
59410;SDS011;45215;32.610;-115.482;2022-09-12T14:31:03;2.13;;;1.80;;
59410;SDS011;45215;32.610;-115.482;2022-09-12T14:33:33;3.67;;;2.00;;
59410;SDS011;45215;32.610;-115.482;2022-09-12T14:36:52;3.15;;;2.17;;
59410;SDS011;45215;32.610;-115.482;2022-09-12T14:41:42;2.72;;;1.85;;
59410;SDS011;45215;32.610;-115.482;2022-09-12T14:44:13;2.85;;;2.10;;
59410;SDS011;45215;32.610;-115.482;2022-09-12T14:46:48;2.80;;;1.92;;
59410;SDS011;45215;32.610;-115.482;2022-09-12T14:49:32;2.83;;;2.05;;
59410;SDS011;45215;32.610;-115.482;2022-09-12T14:52:02;3.17;;;1.92;;
59410;SDS011;45215;32.610;-115.482;2022-09-12T14:57:02;4.43;;;1.92;;
59410;SDS011;45215;32.610;-115.482;2022-09-12T15:04:45;2.00;;;1.60;;
59410;SDS011;45215;32.610;-115.482;2022-09-12T15:09:51;2.45;;;1.77;;
59410;SDS011;45215;32.610;-115.482;2022-09-12T15:12:17;2.60;;;1.70;;
59410;SDS011;45215;32.610;-115.482;2022-09-12T15:14:43;2.53;;;1.90;;
59410;SDS011;45215;32.610;-115.482;2022-09-12T15:17:09;2.58;;;1.67;;
59410;SDS011;45215;32.610;-115.482;2022-09-12T15:19:35;3.40;;;1.77;;
59410;SDS011;45215;32.610;-115.482;2022-09-12T15:22:01;2.50;;;1.90;;
59410;SDS011;45215;32.610;-115.482;2022-09-12T15:24:27;2.92;;;2.00;;
59410;SDS011;45215;32.610;-115.482;2022-09-12T15:26:53;2.40;;;2.17;;
59410;SDS011;45215;32.610;-115.482;2022-09-12T15:29:21;2.00;;;1.60;;
59410;SDS011;45215;32.610;-115.482;2022-09-12T15:31:47;1.70;;;1.35;;
59410;SDS011;45215;32.610;-115.482;2022-09-12T15:34:16;2.60;;;1.80;;
59410;SDS011;45215;32.610;-115.482;2022-09-12T15:36:42;2.45;;;1.70;;
59410;SDS011;45215;32.610;-115.482;2022-09-12T15:39:08;2.47;;;1.65;;
59410;SDS011;45215;32.610;-115.482;2022-09-12T15:41:36;1.48;;;1.38;;
59410;SDS011;45215;32.610;-115.482;2022-09-12T15:44:03;3.53;;;1.88;;
59410;SDS011;45215;32.610;-115.482;2022-09-12T15:46:32;1.77;;;1.55;;
59410;SDS011;45215;32.610;-115.482;2022-09-12T15:48:58;2.42;;;2.00;;
59410;SDS011;45215;32.610;-115.482;2022-09-12T15:51:24;2.30;;;1.60;;
59410;SDS011;45215;32.610;-115.482;2022-09-12T15:53:50;2.10;;;1.70;;
59410;SDS011;45215;32.610;-115.482;2022-09-12T15:56:18;3.45;;;1.70;;
59410;SDS011;45215;32.610;-115.482;2022-09-12T15:58:45;1.80;;;1.45;;
59410;SDS011;45215;32.610;-115.482;2022-09-12T16:01:13;3.58;;;1.90;;
59410;SDS011;45215;32.610;-115.482;2022-09-12T16:03:40;2.00;;;1.80;;
59410;SDS011;45215;32.610;-115.482;2022-09-12T16:06:07;2.20;;;1.80;;
59410;SDS011;45215;32.610;-115.482;2022-09-12T16:08:35;2.47;;;1.67;;
59410;SDS011;45215;32.610;-115.482;2022-09-12T16:11:06;2.58;;;1.88;;
59410;SDS011;45215;32.610;-115.482;2022-09-12T16:13:35;1.83;;;1.63;;
59410;SDS011;45215;32.610;-115.482;2022-09-12T16:16:01;2.47;;;1.67;;
59410;SDS011;45215;32.610;-115.482;2022-09-12T16:18:28;2.38;;;1.73;;
59410;SDS011;45215;32.610;-115.482;2022-09-12T16:20:54;2.35;;;1.80;;
59410;SDS011;45215;32.610;-115.482;2022-09-12T16:23:21;2.67;;;2.00;;
59410;SDS011;45215;32.610;-115.482;2022-09-12T16:26:21;2.50;;;2.10;;
59410;SDS011;45215;32.610;-115.482;2022-09-12T16:28:41;2.25;;;1.70;;
59410;SDS011;45215;32.610;-115.482;2022-09-12T16:31:09;1.95;;;1.70;;
59410;SDS011;45215;32.610;-115.482;2022-09-12T16:33:38;1.90;;;1.80;;
59410;SDS011;45215;32.610;-115.482;2022-09-12T16:36:05;3.03;;;1.90;;
59410;SDS011;45215;32.610;-115.482;2022-09-12T16:38:33;2.33;;;1.90;;
59410;SDS011;45215;32.610;-115.482;2022-09-12T16:41:05;3.53;;;1.70;;
59410;SDS011;45215;32.610;-115.482;2022-09-12T16:43:33;2.20;;;1.90;;
59410;SDS011;45215;32.610;-115.482;2022-09-12T16:46:10;3.65;;;2.33;;
59410;SDS011;45215;32.610;-115.482;2022-09-12T16:48:45;4.88;;;2.00;;
59410;SDS011;45215;32.610;-115.482;2022-09-12T16:51:16;2.90;;;2.20;;
59410;SDS011;45215;32.610;-115.482;2022-09-12T16:53:46;2.10;;;1.90;;
59410;SDS011;45215;32.610;-115.482;2022-09-12T16:56:13;2.53;;;2.05;;
59410;SDS011;45215;32.610;-115.482;2022-09-12T16:58:40;3.17;;;2.20;;
59410;SDS011;45215;32.610;-115.482;2022-09-12T17:01:07;3.85;;;2.30;;
59410;SDS011;45215;32.610;-115.482;2022-09-12T17:03:34;3.65;;;2.05;;
59410;SDS011;45215;32.610;-115.482;2022-09-12T17:06:19;3.13;;;2.20;;
59410;SDS011;45215;32.610;-115.482;2022-09-12T17:08:47;3.53;;;2.08;;
59410;SDS011;45215;32.610;-115.482;2022-09-12T17:11:19;2.70;;;2.50;;
59410;SDS011;45215;32.610;-115.482;2022-09-12T17:13:48;2.65;;;2.00;;
59410;SDS011;45215;32.610;-115.482;2022-09-12T17:16:15;2.35;;;2.08;;
59410;SDS011;45215;32.610;-115.482;2022-09-12T17:18:41;2.40;;;2.20;;
59410;SDS011;45215;32.610;-115.482;2022-09-12T17:21:08;2.88;;;2.20;;
59410;SDS011;45215;32.610;-115.482;2022-09-12T17:23:35;2.75;;;2.38;;
59410;SDS011;45215;32.610;-115.482;2022-09-12T17:26:02;1.95;;;1.85;;